createdAt,value
2017-02-27T00:00:48.678Z,8.77
2017-02-27T00:02:01.737Z,8.77
2017-02-27T00:03:14.792Z,8.77
2017-02-27T00:04:27.840Z,8.75
2017-02-27T00:05:40.559Z,8.68
2017-02-27T00:06:53.617Z,8.66
2017-02-27T00:08:05.917Z,8.71
2017-02-27T00:09:18.613Z,8.72
2017-02-27T00:10:31.680Z,8.68
2017-02-27T00:11:44.362Z,8.71
2017-02-27T00:12:57.431Z,8.68
2017-02-27T00:14:10.101Z,8.69
2017-02-27T00:15:22.767Z,8.71
2017-02-27T00:16:35.447Z,8.69
2017-02-27T00:17:48.543Z,8.71
2017-02-27T00:19:01.655Z,8.66
2017-02-27T00:20:14.726Z,8.68
2017-02-27T00:21:27.672Z,8.72
2017-02-27T00:22:40.748Z,8.72
2017-02-27T00:23:53.810Z,8.66
2017-02-27T00:25:06.939Z,8.63
2017-02-27T00:26:19.988Z,8.66
2017-02-27T00:27:33.058Z,8.69
2017-02-27T00:28:46.175Z,8.6
2017-02-27T00:29:59.252Z,8.63
2017-02-27T00:31:12.322Z,8.68
2017-02-27T00:32:25.381Z,8.72
2017-02-27T00:33:38.464Z,8.63
2017-02-27T00:34:51.551Z,8.59
2017-02-27T00:36:04.627Z,8.63
2017-02-27T00:37:17.727Z,8.6
2017-02-27T00:38:30.443Z,8.64
2017-02-27T00:39:43.569Z,8.66
2017-02-27T00:40:56.656Z,8.69
2017-02-27T00:42:09.352Z,8.75
2017-02-27T00:43:22.680Z,8.61
2017-02-27T00:44:35.348Z,8.71
2017-02-27T00:45:48.393Z,8.64
2017-02-27T00:47:01.469Z,8.74
2017-02-27T00:48:14.534Z,8.64
2017-02-27T00:49:27.605Z,8.66
2017-02-27T00:50:40.680Z,8.68
2017-02-27T00:51:53.780Z,8.66
2017-02-27T00:53:06.845Z,8.72
2017-02-27T00:54:19.567Z,8.68
2017-02-27T00:55:32.657Z,8.69
2017-02-27T00:56:45.710Z,8.69
2017-02-27T00:57:58.827Z,8.63
2017-02-27T00:59:11.582Z,8.61
2017-02-27T01:00:24.686Z,8.69
2017-02-27T01:01:37.807Z,8.64
2017-02-27T01:02:50.860Z,8.68
2017-02-27T01:04:03.941Z,8.64
2017-02-27T01:05:17.279Z,8.68
2017-02-27T01:06:29.977Z,8.69
2017-02-27T01:07:42.640Z,8.6
2017-02-27T01:08:54.964Z,8.69
2017-02-27T01:10:07.281Z,8.66
2017-02-27T01:11:20.353Z,8.71
2017-02-27T01:12:33.402Z,8.69
2017-02-27T01:13:46.502Z,8.68
2017-02-27T01:14:59.622Z,8.68
2017-02-27T01:16:12.317Z,8.64
2017-02-27T01:17:24.978Z,8.66
2017-02-27T01:18:38.011Z,8.68
2017-02-27T01:19:50.677Z,8.69
2017-02-27T01:21:03.770Z,8.68
2017-02-27T01:22:16.419Z,8.68
2017-02-27T01:23:29.490Z,8.66
2017-02-27T01:24:42.161Z,8.66
2017-02-27T01:25:54.817Z,8.61
2017-02-27T01:27:07.749Z,8.68
2017-02-27T01:28:20.902Z,8.63
2017-02-27T01:29:34.019Z,8.63
2017-02-27T01:30:46.712Z,8.64
2017-02-27T01:31:59.789Z,8.61
2017-02-27T01:33:12.459Z,8.71
2017-02-27T01:34:25.528Z,8.68
2017-02-27T01:37:47.976Z,8.6
2017-02-27T01:52:44.270Z,8.66
2017-02-27T01:53:57.390Z,8.64
2017-02-27T01:55:10.534Z,8.64
2017-02-27T01:56:23.576Z,8.69
2017-02-27T01:57:36.696Z,8.72
2017-02-27T01:58:49.425Z,8.72
2017-02-27T02:00:01.753Z,8.6
2017-02-27T02:01:14.440Z,8.72
2017-02-27T02:02:27.483Z,8.61
2017-02-27T02:03:40.579Z,8.68
2017-02-27T02:04:52.750Z,8.63
2017-02-27T02:06:05.800Z,8.72
2017-02-27T02:07:17.696Z,8.72
2017-02-27T02:08:30.771Z,8.64
2017-02-27T02:09:43.880Z,8.63
2017-02-27T02:10:56.934Z,8.72
2017-02-27T02:12:09.622Z,8.6
2017-02-27T02:13:22.717Z,8.64
2017-02-27T02:14:35.839Z,8.68
2017-02-27T02:15:48.908Z,8.61
2017-02-27T02:17:01.969Z,8.6
2017-02-27T02:18:15.052Z,8.6
2017-02-27T02:19:28.147Z,8.6
2017-02-27T02:20:41.224Z,8.59
2017-02-27T02:21:53.918Z,8.61
2017-02-27T02:23:07.006Z,8.61
2017-02-27T02:24:20.052Z,8.63
2017-02-27T02:25:33.139Z,8.63
2017-02-27T02:26:45.894Z,8.6
2017-02-27T02:27:58.590Z,8.66
2017-02-27T02:29:11.697Z,8.59
2017-02-27T02:30:24.390Z,8.59
2017-02-27T02:31:37.107Z,8.56
2017-02-27T02:32:50.186Z,8.56
2017-02-27T02:34:03.244Z,8.56
2017-02-27T02:35:16.301Z,8.56
2017-02-27T02:36:28.994Z,8.64
2017-02-27T02:37:42.093Z,8.59
2017-02-27T02:38:55.166Z,8.56
2017-02-27T02:40:08.303Z,8.56
2017-02-27T02:41:20.628Z,8.57
2017-02-27T02:42:33.977Z,8.56
2017-02-27T02:43:47.071Z,8.57
2017-02-27T02:44:59.768Z,8.6
2017-02-27T02:46:12.853Z,8.56
2017-02-27T02:47:25.553Z,8.61
2017-02-27T02:48:38.645Z,8.56
2017-02-27T02:49:51.752Z,8.59
2017-02-27T02:51:04.863Z,8.6
2017-02-27T02:52:17.140Z,8.6
2017-02-27T02:53:30.214Z,8.59
2017-02-27T02:54:43.261Z,8.57
2017-02-27T02:55:56.335Z,8.6
2017-02-27T02:57:09.027Z,8.6
2017-02-27T02:58:21.794Z,8.6
2017-02-27T02:59:34.865Z,8.56
2017-02-27T03:00:47.566Z,8.57
2017-02-27T03:02:00.658Z,8.57
2017-02-27T03:03:13.004Z,8.56
2017-02-27T03:04:25.723Z,8.56
2017-02-27T03:05:38.440Z,8.56
2017-02-27T03:06:50.744Z,8.6
2017-02-27T03:08:03.812Z,8.56
2017-02-27T03:09:16.867Z,8.54
2017-02-27T03:10:29.950Z,8.6
2017-02-27T03:11:42.620Z,8.54
2017-02-27T03:12:55.696Z,8.52
2017-02-27T03:14:08.746Z,8.56
2017-02-27T03:15:20.683Z,8.46
2017-02-27T03:16:33.758Z,8.6
2017-02-27T03:17:46.875Z,8.59
2017-02-27T03:18:59.525Z,8.56
2017-02-27T03:20:12.200Z,8.49
2017-02-27T03:21:25.263Z,8.56
2017-02-27T03:22:38.344Z,8.54
2017-02-27T03:23:51.418Z,8.6
2017-02-27T03:25:04.513Z,8.63
2017-02-27T03:26:17.578Z,8.56
2017-02-27T03:27:30.276Z,8.52
2017-02-27T03:28:42.974Z,8.56
2017-02-27T03:29:55.658Z,8.63
2017-02-27T03:31:08.736Z,8.46
2017-02-27T03:32:21.433Z,8.64
2017-02-27T03:33:34.150Z,8.53
2017-02-27T03:34:47.199Z,8.52
2017-02-27T03:35:59.859Z,8.66
2017-02-27T03:37:13.019Z,8.45
2017-02-27T03:38:26.142Z,8.46
2017-02-27T03:39:38.830Z,8.6
2017-02-27T03:40:51.145Z,8.5
2017-02-27T03:42:03.821Z,8.56
2017-02-27T03:43:16.517Z,8.56
2017-02-27T03:44:29.609Z,8.5
2017-02-27T03:45:42.734Z,8.5
2017-02-27T03:46:55.401Z,8.5
2017-02-27T03:48:08.506Z,8.5
2017-02-27T03:49:21.191Z,8.5
2017-02-27T03:50:33.513Z,8.56
2017-02-27T03:51:46.191Z,8.46
2017-02-27T03:52:59.284Z,8.5
2017-02-27T03:54:12.360Z,8.63
2017-02-27T03:55:25.055Z,8.49
2017-02-27T03:56:38.121Z,8.53
2017-02-27T03:57:51.235Z,8.63
2017-02-27T03:59:03.931Z,8.46
2017-02-27T04:00:17.005Z,8.54
2017-02-27T04:01:30.084Z,8.49
2017-02-27T04:02:43.155Z,8.57
2017-02-27T04:03:55.843Z,8.54
2017-02-27T04:05:09.160Z,8.42
2017-02-27T04:06:22.239Z,8.54
2017-02-27T04:07:35.338Z,8.52
2017-02-27T04:08:48.409Z,8.5
2017-02-27T04:10:01.106Z,8.49
2017-02-27T04:11:13.803Z,8.44
2017-02-27T04:12:26.549Z,8.44
2017-02-27T04:13:39.593Z,8.46
2017-02-27T04:14:52.266Z,8.59
2017-02-27T04:16:05.309Z,8.36
2017-02-27T04:17:17.982Z,8.44
2017-02-27T04:18:31.100Z,8.53
2017-02-27T04:19:44.163Z,8.44
2017-02-27T04:20:57.064Z,8.49
2017-02-27T04:22:10.164Z,8.52
2017-02-27T04:23:23.273Z,8.46
2017-02-27T04:24:35.983Z,8.46
2017-02-27T04:25:49.126Z,8.54
2017-02-27T04:27:02.214Z,8.49
2017-02-27T04:28:14.868Z,8.45
2017-02-27T04:29:27.160Z,8.42
2017-02-27T04:30:40.208Z,8.46
2017-02-27T04:31:52.952Z,8.46
2017-02-27T04:33:06.027Z,8.45
2017-02-27T04:34:18.697Z,8.39
2017-02-27T04:35:31.761Z,8.49
2017-02-27T04:36:44.840Z,8.46
2017-02-27T04:37:57.555Z,8.36
2017-02-27T04:39:10.655Z,8.35
2017-02-27T04:40:23.723Z,8.38
2017-02-27T04:41:36.798Z,8.42
2017-02-27T04:42:49.489Z,8.32
2017-02-27T04:44:01.414Z,8.24
2017-02-27T04:45:14.537Z,8.27
2017-02-27T04:46:27.257Z,8.34
2017-02-27T04:47:39.970Z,8.32
2017-02-27T04:48:53.047Z,8.23
2017-02-27T04:50:05.373Z,8.28
2017-02-27T04:51:18.416Z,8.18
2017-02-27T04:52:31.462Z,8.17
2017-02-27T04:53:44.132Z,8.11
2017-02-27T04:54:56.853Z,8.09
2017-02-27T04:56:09.546Z,8.06
2017-02-27T04:57:22.639Z,8.16
2017-02-27T04:58:35.361Z,8.09
2017-02-27T04:59:48.407Z,8.06
2017-02-27T05:01:01.083Z,7.99
2017-02-27T05:02:13.754Z,7.93
2017-02-27T05:03:26.042Z,7.99
2017-02-27T05:04:39.090Z,7.88
2017-02-27T05:05:52.206Z,7.85
2017-02-27T05:07:04.157Z,7.83
2017-02-27T05:08:16.849Z,7.75
2017-02-27T05:09:29.927Z,7.81
2017-02-27T05:10:43.023Z,7.75
2017-02-27T05:11:56.099Z,7.77
2017-02-27T05:13:09.136Z,7.66
2017-02-27T05:14:21.810Z,7.62
2017-02-27T05:15:34.882Z,7.69
2017-02-27T05:16:47.978Z,7.64
2017-02-27T05:18:00.315Z,7.55
2017-02-27T05:19:13.371Z,7.51
2017-02-27T05:20:26.411Z,7.41
2017-02-27T05:21:39.436Z,7.4
2017-02-27T05:22:52.103Z,7.43
2017-02-27T05:24:05.174Z,7.43
2017-02-27T05:25:17.866Z,7.28
2017-02-27T05:26:30.921Z,7.28
2017-02-27T05:27:43.989Z,7.25
2017-02-27T05:28:56.685Z,7.23
2017-02-27T05:30:09.745Z,7.22
2017-02-27T05:31:22.845Z,7.13
2017-02-27T05:32:35.497Z,7.13
2017-02-27T05:33:48.169Z,7.08
2017-02-27T05:35:00.066Z,7
2017-02-27T05:36:12.725Z,7
2017-02-27T05:37:25.811Z,6.9
2017-02-27T05:38:38.103Z,6.89
2017-02-27T05:39:51.191Z,6.96
2017-02-27T05:41:03.869Z,6.86
2017-02-27T05:42:16.535Z,6.75
2017-02-27T05:43:28.886Z,6.82
2017-02-27T05:44:41.981Z,6.71
2017-02-27T05:45:55.055Z,6.7
2017-02-27T05:47:07.695Z,6.64
2017-02-27T05:48:20.745Z,6.62
2017-02-27T05:49:33.414Z,6.59
2017-02-27T05:50:46.437Z,6.5
2017-02-27T05:51:59.528Z,6.5
2017-02-27T05:53:12.450Z,6.49
2017-02-27T05:54:25.524Z,6.52
2017-02-27T05:55:37.812Z,6.36
2017-02-27T05:56:50.495Z,6.39
2017-02-27T05:58:03.566Z,6.31
2017-02-27T05:59:16.271Z,6.32
2017-02-27T06:00:29.326Z,6.32
2017-02-27T06:01:42.024Z,6.16
2017-02-27T06:02:55.095Z,6.25
2017-02-27T06:04:08.034Z,6.2
2017-02-27T06:05:21.104Z,6.17
2017-02-27T06:06:34.201Z,6.13
2017-02-27T06:07:47.271Z,6.1
2017-02-27T06:08:59.942Z,6.05
2017-02-27T06:10:13.042Z,6.07
2017-02-27T06:11:25.743Z,6.02
2017-02-27T06:12:38.805Z,6.06
2017-02-27T06:13:51.504Z,6.02
2017-02-27T06:15:04.205Z,6.06
2017-02-27T06:16:17.300Z,5.97
2017-02-27T06:17:30.349Z,5.98
2017-02-27T06:18:43.416Z,5.91
2017-02-27T06:19:56.513Z,5.92
2017-02-27T06:21:09.610Z,5.92
2017-02-27T06:22:22.701Z,5.94
2017-02-27T06:23:35.776Z,5.91
2017-02-27T06:24:48.490Z,5.91
2017-02-27T06:26:01.571Z,5.91
2017-02-27T06:27:14.238Z,5.83
2017-02-27T06:28:26.177Z,5.84
2017-02-27T06:29:38.897Z,5.8
2017-02-27T06:30:51.992Z,5.84
2017-02-27T06:32:04.686Z,5.84
2017-02-27T06:33:17.364Z,5.77
2017-02-27T06:34:30.478Z,5.72
2017-02-27T06:35:43.537Z,5.76
2017-02-27T06:36:56.622Z,5.79
2017-02-27T06:38:09.704Z,5.72
2017-02-27T06:39:21.998Z,5.73
2017-02-27T06:40:34.691Z,5.74
2017-02-27T06:41:47.765Z,5.79
2017-02-27T06:43:00.824Z,5.76
2017-02-27T06:44:13.844Z,5.67
2017-02-27T06:45:26.152Z,5.73
2017-02-27T06:46:38.816Z,5.62
2017-02-27T06:47:51.871Z,5.72
2017-02-27T06:49:04.966Z,5.7
2017-02-27T06:50:18.035Z,5.59
2017-02-27T06:51:30.358Z,5.61
2017-02-27T06:52:43.454Z,5.65
2017-02-27T06:53:56.499Z,5.64
2017-02-27T06:55:09.586Z,5.62
2017-02-27T06:56:22.707Z,5.59
2017-02-27T06:57:35.753Z,5.7
2017-02-27T06:58:48.807Z,5.67
2017-02-27T07:00:01.867Z,5.62
2017-02-27T07:01:14.948Z,5.62
2017-02-27T07:02:27.613Z,5.65
2017-02-27T07:03:40.689Z,5.62
2017-02-27T07:04:53.761Z,5.61
2017-02-27T07:06:06.821Z,5.74
2017-02-27T07:07:19.902Z,5.59
2017-02-27T07:08:32.958Z,5.77
2017-02-27T07:09:46.084Z,5.77
2017-02-27T07:10:59.138Z,5.77
2017-02-27T07:12:12.215Z,5.74
2017-02-27T07:13:25.257Z,5.76
2017-02-27T07:14:38.302Z,5.79
2017-02-27T07:15:51.376Z,5.76
2017-02-27T07:17:04.463Z,5.83
2017-02-27T07:18:17.566Z,5.87
2017-02-27T07:19:30.665Z,5.87
2017-02-27T07:20:43.732Z,5.84
2017-02-27T07:21:56.801Z,5.91
2017-02-27T07:23:09.863Z,5.94
2017-02-27T07:24:22.135Z,5.94
2017-02-27T07:25:35.462Z,6.01
2017-02-27T07:26:48.127Z,6.01
2017-02-27T07:28:01.202Z,6.12
2017-02-27T07:29:14.325Z,6.16
2017-02-27T07:30:27.006Z,6.19
2017-02-27T07:31:40.071Z,6.22
2017-02-27T07:32:53.135Z,6.26
2017-02-27T07:34:05.787Z,6.28
2017-02-27T07:35:18.858Z,6.29
2017-02-27T07:36:31.935Z,6.31
2017-02-27T07:37:44.975Z,6.39
2017-02-27T07:38:58.072Z,6.41
2017-02-27T07:40:11.172Z,6.49
2017-02-27T07:41:24.206Z,6.52
2017-02-27T07:42:37.281Z,6.46
2017-02-27T07:43:50.353Z,6.53
2017-02-27T07:45:03.043Z,6.57
2017-02-27T07:46:16.139Z,6.6
2017-02-27T07:47:28.841Z,6.64
2017-02-27T07:48:41.930Z,6.67
2017-02-27T07:49:54.606Z,6.75
2017-02-27T07:51:07.698Z,6.65
2017-02-27T07:52:20.798Z,6.8
2017-02-27T07:53:33.872Z,6.78
2017-02-27T07:54:46.199Z,6.92
2017-02-27T07:55:59.261Z,6.87
2017-02-27T07:57:12.311Z,6.92
2017-02-27T07:58:25.405Z,6.96
2017-02-27T07:59:38.498Z,7.01
2017-02-27T08:00:51.196Z,7.07
2017-02-27T08:02:03.515Z,7.13
2017-02-27T08:03:16.190Z,7.07
2017-02-27T08:04:29.274Z,7.11
2017-02-27T08:05:41.928Z,7.28
2017-02-27T08:06:55.029Z,7.26
2017-02-27T08:08:08.119Z,7.29
2017-02-27T08:09:21.211Z,7.37
2017-02-27T08:10:33.891Z,7.51
2017-02-27T08:11:46.963Z,7.55
2017-02-27T08:13:00.046Z,7.51
2017-02-27T08:14:13.177Z,7.64
2017-02-27T08:15:26.320Z,7.69
2017-02-27T08:16:39.369Z,7.83
2017-02-27T08:17:52.441Z,7.7
2017-02-27T08:19:05.540Z,7.93
2017-02-27T08:20:18.632Z,7.98
2017-02-27T08:21:31.667Z,7.99
2017-02-27T08:22:44.745Z,8.03
2017-02-27T08:23:57.834Z,8.09
2017-02-27T08:25:10.887Z,8.13
2017-02-27T08:26:23.928Z,8.23
2017-02-27T08:27:36.228Z,8.31
2017-02-27T08:28:48.920Z,8.31
2017-02-27T08:30:01.999Z,8.28
2017-02-27T08:31:15.050Z,8.39
2017-02-27T08:32:27.737Z,8.39
2017-02-27T08:33:40.417Z,8.44
2017-02-27T08:34:53.574Z,8.57
2017-02-27T08:36:06.677Z,8.44
2017-02-27T08:37:19.723Z,8.59
2017-02-27T08:38:32.791Z,8.6
2017-02-27T08:39:45.855Z,8.72
2017-02-27T08:40:58.883Z,8.75
2017-02-27T08:42:11.564Z,8.78
2017-02-27T08:43:24.625Z,8.79
2017-02-27T08:44:37.727Z,8.84
2017-02-27T08:45:50.394Z,8.95
2017-02-27T08:47:03.541Z,9.02
2017-02-27T08:48:16.301Z,9.08
2017-02-27T08:49:28.979Z,9.18
2017-02-27T08:50:42.053Z,9.08
2017-02-27T08:51:55.139Z,9.16
2017-02-27T08:53:08.200Z,9.31
2017-02-27T08:54:21.313Z,9.27
2017-02-27T08:55:34.419Z,9.3
2017-02-27T08:56:47.454Z,9.3
2017-02-27T08:58:00.125Z,9.36
2017-02-27T08:59:13.214Z,9.44
2017-02-27T09:00:26.312Z,9.47
2017-02-27T09:01:38.994Z,9.45
2017-02-27T09:02:51.687Z,9.54
2017-02-27T09:04:04.381Z,9.58
2017-02-27T09:05:17.081Z,9.64
2017-02-27T09:06:30.147Z,9.76
2017-02-27T09:07:42.417Z,9.73
2017-02-27T09:08:55.492Z,9.81
2017-02-27T09:10:07.819Z,9.85
2017-02-27T09:11:20.877Z,9.97
2017-02-27T09:12:33.556Z,10.06
2017-02-27T09:13:46.667Z,10.06
2017-02-27T09:14:59.743Z,10.06
2017-02-27T09:16:12.085Z,10.06
2017-02-27T09:17:25.177Z,10.13
2017-02-27T09:18:37.880Z,10.18
2017-02-27T09:19:50.971Z,10.27
2017-02-27T09:21:04.050Z,10.3
2017-02-27T09:22:17.139Z,10.27
2017-02-27T09:23:30.217Z,10.38
2017-02-27T09:24:43.302Z,10.33
2017-02-27T09:25:56.377Z,10.39
2017-02-27T09:27:09.180Z,10.45
2017-02-27T09:28:21.890Z,10.43
2017-02-27T09:29:34.949Z,10.55
2017-02-27T09:30:47.634Z,10.48
2017-02-27T09:32:00.727Z,10.65
2017-02-27T09:33:13.810Z,10.64
2017-02-27T09:34:26.906Z,10.69
2017-02-27T09:35:39.623Z,10.83
2017-02-27T09:36:52.694Z,10.77
2017-02-27T09:38:05.835Z,10.77
2017-02-27T09:39:18.478Z,10.77
2017-02-27T09:40:31.567Z,10.83
2017-02-27T09:41:44.653Z,10.9
2017-02-27T09:42:57.699Z,11.04
2017-02-27T09:44:10.395Z,11.01
2017-02-27T09:45:23.485Z,10.95
2017-02-27T09:46:36.591Z,11.08
2017-02-27T09:47:49.688Z,11.1
2017-02-27T09:49:02.823Z,11.16
2017-02-27T09:50:15.877Z,11.12
2017-02-27T09:51:28.968Z,11.19
2017-02-27T09:52:41.667Z,11.26
2017-02-27T09:53:54.766Z,11.33
2017-02-27T09:55:07.848Z,11.26
2017-02-27T09:56:20.895Z,11.4
2017-02-27T09:57:33.974Z,11.35
2017-02-27T09:58:47.044Z,11.4
2017-02-27T10:00:00.118Z,11.35
2017-02-27T10:01:12.839Z,11.51
2017-02-27T10:02:25.929Z,11.48
2017-02-27T10:03:38.260Z,11.53
2017-02-27T10:04:50.952Z,11.59
2017-02-27T10:06:04.014Z,11.65
2017-02-27T10:07:16.683Z,11.71
2017-02-27T10:08:29.740Z,11.68
2017-02-27T10:09:42.811Z,11.71
2017-02-27T10:10:55.931Z,11.8
2017-02-27T10:12:08.267Z,11.77
2017-02-27T10:13:21.390Z,11.77
2017-02-27T10:14:34.086Z,11.81
2017-02-27T10:15:47.182Z,11.95
2017-02-27T10:17:00.262Z,11.91
2017-02-27T10:18:13.399Z,11.99
2017-02-27T10:19:26.750Z,11.99
2017-02-27T10:20:39.825Z,12.07
2017-02-27T10:21:52.898Z,12.03
2017-02-27T10:23:05.937Z,12.05
2017-02-27T10:24:18.628Z,12.26
2017-02-27T10:25:31.337Z,12.25
2017-02-27T10:26:44.417Z,12.23
2017-02-27T10:27:57.471Z,12.28
2017-02-27T10:29:10.583Z,12.39
2017-02-27T10:30:22.958Z,12.43
2017-02-27T10:31:36.060Z,12.44
2017-02-27T10:32:48.749Z,12.47
2017-02-27T10:34:01.827Z,12.58
2017-02-27T10:35:14.497Z,12.61
2017-02-27T10:36:26.791Z,12.65
2017-02-27T10:37:39.507Z,12.63
2017-02-27T10:38:52.187Z,12.68
2017-02-27T10:40:05.254Z,12.76
2017-02-27T10:41:18.331Z,12.76
2017-02-27T10:42:31.428Z,12.83
2017-02-27T10:43:44.495Z,12.84
2017-02-27T10:44:57.565Z,12.86
2017-02-27T10:46:09.892Z,12.88
2017-02-27T10:47:22.979Z,12.84
2017-02-27T10:48:36.025Z,12.86
2017-02-27T10:49:49.097Z,12.84
2017-02-27T10:51:02.210Z,12.95
2017-02-27T10:52:14.904Z,13.01
2017-02-27T10:53:27.964Z,13.06
2017-02-27T10:54:41.033Z,13.09
2017-02-27T10:55:54.100Z,13.17
2017-02-27T10:57:07.238Z,13.17
2017-02-27T10:58:20.310Z,13.27
2017-02-27T10:59:33.439Z,13.33
2017-02-27T11:00:46.154Z,13.52
2017-02-27T11:01:59.247Z,13.45
2017-02-27T11:03:11.930Z,13.57
2017-02-27T11:04:24.639Z,13.67
2017-02-27T11:05:37.697Z,13.65
2017-02-27T11:06:50.780Z,13.76
2017-02-27T11:08:03.102Z,13.83
2017-02-27T11:09:16.155Z,13.91
2017-02-27T11:10:28.901Z,13.87
2017-02-27T11:11:41.976Z,14.03
2017-02-27T11:12:55.042Z,14.05
2017-02-27T11:14:07.768Z,14.03
2017-02-27T11:15:20.856Z,14.01
2017-02-27T11:16:33.976Z,14.11
2017-02-27T11:17:47.073Z,14.18
2017-02-27T11:19:00.176Z,14.13
2017-02-27T11:20:13.264Z,14.15
2017-02-27T11:21:26.342Z,14.18
2017-02-27T11:22:39.060Z,14.2
2017-02-27T11:23:52.149Z,14.3
2017-02-27T11:25:04.901Z,14.23
2017-02-27T11:26:17.994Z,14.19
2017-02-27T11:27:31.143Z,14.31
2017-02-27T11:28:44.232Z,14.33
2017-02-27T11:29:57.328Z,14.25
2017-02-27T11:31:10.360Z,14.25
2017-02-27T11:32:23.452Z,14.19
2017-02-27T11:33:36.548Z,14.13
2017-02-27T11:34:49.636Z,14.26
2017-02-27T11:36:02.723Z,14.2
2017-02-27T11:37:15.831Z,14.16
2017-02-27T11:38:28.552Z,14.2
2017-02-27T11:39:41.619Z,14.16
2017-02-27T11:40:54.673Z,14.18
2017-02-27T11:42:07.427Z,14.22
2017-02-27T11:43:20.508Z,14.28
2017-02-27T11:44:33.607Z,14.19
2017-02-27T11:45:46.687Z,14.22
2017-02-27T11:46:59.756Z,14.3
2017-02-27T11:48:12.465Z,14.3
2017-02-27T11:49:25.540Z,14.22
2017-02-27T11:50:38.218Z,14.2
2017-02-27T11:51:51.290Z,14.26
2017-02-27T11:53:04.361Z,14.19
2017-02-27T11:54:17.452Z,14.3
2017-02-27T11:55:29.777Z,14.26
2017-02-27T11:56:42.120Z,14.25
2017-02-27T11:57:55.209Z,14.34
2017-02-27T11:59:08.254Z,14.41
2017-02-27T12:00:21.313Z,14.34
2017-02-27T12:01:34.395Z,14.44
2017-02-27T12:02:47.477Z,14.44
2017-02-27T12:04:00.591Z,14.41
2017-02-27T12:05:13.661Z,14.38
2017-02-27T12:06:26.733Z,14.44
2017-02-27T12:07:39.432Z,14.4
2017-02-27T12:08:52.529Z,14.44
2017-02-27T12:10:05.228Z,14.48
2017-02-27T12:11:18.348Z,14.49
2017-02-27T12:12:31.437Z,14.44
2017-02-27T12:13:44.512Z,14.33
2017-02-27T12:14:57.567Z,14.41
2017-02-27T12:16:10.655Z,14.25
2017-02-27T12:17:23.702Z,14.25
2017-02-27T12:18:36.787Z,14.19
2017-02-27T12:19:50.147Z,14.16
2017-02-27T12:21:02.853Z,14.08
2017-02-27T12:22:15.950Z,13.93
2017-02-27T12:23:29.046Z,13.94
2017-02-27T12:24:41.744Z,13.93
2017-02-27T12:25:54.438Z,13.93
2017-02-27T12:27:07.512Z,13.87
2017-02-27T12:28:20.590Z,13.91
2017-02-27T12:29:33.701Z,13.85
2017-02-27T12:30:46.778Z,13.78
2017-02-27T12:31:59.856Z,13.78
2017-02-27T12:33:11.795Z,13.68
2017-02-27T12:34:24.862Z,13.65
2017-02-27T12:35:37.945Z,13.65
2017-02-27T12:36:50.657Z,13.6
2017-02-27T12:38:03.731Z,13.62
2017-02-27T12:39:16.453Z,13.55
2017-02-27T12:40:29.491Z,13.6
2017-02-27T12:41:42.172Z,13.57
2017-02-27T12:42:55.266Z,13.55
2017-02-27T12:44:08.324Z,13.49
2017-02-27T12:45:21.021Z,13.55
2017-02-27T12:46:33.316Z,13.52
2017-02-27T12:47:46.016Z,13.52
2017-02-27T12:48:58.722Z,13.5
2017-02-27T12:50:11.416Z,13.47
2017-02-27T12:51:24.483Z,13.57
2017-02-27T12:52:37.183Z,13.54
2017-02-27T12:53:49.876Z,13.55
2017-02-27T12:55:02.926Z,13.54
2017-02-27T12:56:15.997Z,13.54
2017-02-27T12:57:29.066Z,13.57
2017-02-27T12:58:41.807Z,13.73
2017-02-27T12:59:54.108Z,13.62
2017-02-27T13:01:07.178Z,13.67
2017-02-27T13:02:20.263Z,13.62
2017-02-27T13:03:33.362Z,13.65
2017-02-27T13:04:45.697Z,13.64
2017-02-27T13:05:58.776Z,13.67
2017-02-27T13:07:11.480Z,13.67
2017-02-27T13:08:24.599Z,13.6
2017-02-27T13:09:37.323Z,13.67
2017-02-27T13:10:50.375Z,13.62
2017-02-27T13:12:03.465Z,13.67
2017-02-27T13:13:16.177Z,13.64
2017-02-27T13:14:29.285Z,13.67
2017-02-27T13:15:42.350Z,13.79
2017-02-27T13:16:55.425Z,13.68
2017-02-27T13:18:08.467Z,13.76
2017-02-27T13:19:21.143Z,13.68
2017-02-27T13:20:34.237Z,13.7
2017-02-27T13:21:47.383Z,13.73
2017-02-27T13:23:00.452Z,13.71
2017-02-27T13:24:13.514Z,13.7
2017-02-27T13:25:26.574Z,13.67
2017-02-27T13:26:39.266Z,13.65
2017-02-27T13:27:52.334Z,13.65
2017-02-27T13:29:05.434Z,13.67
2017-02-27T13:30:18.551Z,13.61
2017-02-27T13:31:31.674Z,13.65
2017-02-27T13:32:44.321Z,13.6
2017-02-27T13:33:57.389Z,13.55
2017-02-27T13:35:10.481Z,13.58
2017-02-27T13:36:23.559Z,13.49
2017-02-27T13:37:36.627Z,13.45
2017-02-27T13:38:49.727Z,13.4
2017-02-27T13:40:02.767Z,13.39
2017-02-27T13:41:15.050Z,13.36
2017-02-27T13:42:28.163Z,13.31
2017-02-27T13:43:41.235Z,13.26
2017-02-27T13:44:53.935Z,13.3
2017-02-27T13:46:06.250Z,13.3
2017-02-27T13:47:18.561Z,13.33
2017-02-27T13:48:30.890Z,13.4
2017-02-27T13:49:43.187Z,13.42
2017-02-27T13:50:56.274Z,13.37
2017-02-27T13:52:09.355Z,13.45
2017-02-27T13:53:22.455Z,13.39
2017-02-27T13:54:35.519Z,13.4
2017-02-27T13:55:48.618Z,13.39
2017-02-27T13:57:01.686Z,13.37
2017-02-27T13:58:14.357Z,13.24
2017-02-27T13:59:27.436Z,13.27
2017-02-27T14:00:40.495Z,13.27
2017-02-27T14:01:53.548Z,13.24
2017-02-27T14:03:06.617Z,13.27
2017-02-27T14:04:19.729Z,13.23
2017-02-27T14:05:32.810Z,13.06
2017-02-27T14:06:45.878Z,13.12
2017-02-27T14:07:58.575Z,13.03
2017-02-27T14:09:11.673Z,13.06
2017-02-27T14:10:24.393Z,12.99
2017-02-27T14:11:37.457Z,12.99
2017-02-27T14:12:49.378Z,12.95
2017-02-27T14:14:02.428Z,12.88
2017-02-27T14:15:15.499Z,12.8
2017-02-27T14:16:28.574Z,12.87
2017-02-27T14:17:41.645Z,12.78
2017-02-27T14:18:54.741Z,12.73
2017-02-27T14:20:07.813Z,12.73
2017-02-27T14:21:20.920Z,12.73
2017-02-27T14:22:34.024Z,12.76
2017-02-27T14:23:47.097Z,12.68
2017-02-27T14:25:00.181Z,12.65
2017-02-27T14:26:12.915Z,12.7
2017-02-27T14:27:25.987Z,12.5
2017-02-27T14:28:39.083Z,12.55
2017-02-27T14:29:51.793Z,12.55
2017-02-27T14:31:04.876Z,12.55
2017-02-27T14:32:17.968Z,12.55
2017-02-27T14:33:30.654Z,12.44
2017-02-27T14:34:43.314Z,12.44
2017-02-27T14:35:56.403Z,12.36
2017-02-27T14:37:09.491Z,12.37
2017-02-27T14:38:22.575Z,12.44
2017-02-27T14:39:35.271Z,12.39
2017-02-27T14:40:48.366Z,12.4
2017-02-27T14:42:01.412Z,12.4
2017-02-27T14:43:14.553Z,12.37
2017-02-27T14:44:27.224Z,12.33
2017-02-27T14:45:39.898Z,12.35
2017-02-27T14:46:52.591Z,12.35
2017-02-27T14:48:05.666Z,12.33
2017-02-27T14:49:18.763Z,12.33
2017-02-27T14:50:31.872Z,12.3
2017-02-27T14:51:44.949Z,12.28
2017-02-27T14:52:58.021Z,12.28
2017-02-27T14:54:11.119Z,12.23
2017-02-27T14:55:24.212Z,12.23
2017-02-27T14:56:37.286Z,12.23
2017-02-27T14:57:49.870Z,12.23
2017-02-27T14:59:02.971Z,12.28
2017-02-27T15:00:16.039Z,12.21
2017-02-27T15:01:29.162Z,12.17
2017-02-27T15:02:41.903Z,12.25
2017-02-27T15:03:54.609Z,12.18
2017-02-27T15:05:07.706Z,12.23
2017-02-27T15:06:20.818Z,12.25
2017-02-27T15:07:33.895Z,12.2
2017-02-27T15:08:46.991Z,12.29
2017-02-27T15:10:00.080Z,12.25
2017-02-27T15:11:12.362Z,12.23
2017-02-27T15:12:25.482Z,12.25
2017-02-27T15:13:38.553Z,12.26
2017-02-27T15:14:51.273Z,12.28
2017-02-27T15:16:03.984Z,12.28
2017-02-27T15:17:17.059Z,12.25
2017-02-27T15:18:29.761Z,12.26
2017-02-27T15:19:42.829Z,12.23
2017-02-27T15:20:55.875Z,12.2
2017-02-27T15:22:09.000Z,12.21
2017-02-27T15:23:22.063Z,12.29
2017-02-27T15:24:35.137Z,12.2
2017-02-27T15:25:48.238Z,12.2
2017-02-27T15:27:01.305Z,12.25
2017-02-27T15:28:14.372Z,12.25
2017-02-27T15:29:27.450Z,12.11
2017-02-27T15:30:40.163Z,12.12
2017-02-27T15:31:53.265Z,12.17
2017-02-27T15:33:06.309Z,12.17
2017-02-27T15:34:19.376Z,12.08
2017-02-27T15:35:32.055Z,12.08
2017-02-27T15:36:45.155Z,12.15
2017-02-27T15:37:57.485Z,12.11
2017-02-27T15:39:10.596Z,12.15
2017-02-27T15:40:23.260Z,12.15
2017-02-27T15:41:36.333Z,12.1
2017-02-27T15:42:49.398Z,12.11
2017-02-27T15:44:02.467Z,12.23
2017-02-27T15:45:15.139Z,12.25
2017-02-27T15:46:28.234Z,12.17
2017-02-27T15:47:40.914Z,12.21
2017-02-27T15:48:53.986Z,12.26
2017-02-27T15:50:07.068Z,12.21
2017-02-27T15:51:20.148Z,12.2
2017-02-27T15:52:33.240Z,12.33
2017-02-27T15:53:46.293Z,12.32
2017-02-27T15:54:58.965Z,12.29
2017-02-27T15:56:11.660Z,12.28
2017-02-27T15:57:24.377Z,12.29
2017-02-27T15:58:37.452Z,12.26
2017-02-27T15:59:50.563Z,12.32
2017-02-27T16:01:03.240Z,12.28
2017-02-27T16:02:16.327Z,12.26
2017-02-27T16:03:28.626Z,12.21
2017-02-27T16:04:41.681Z,12.18
2017-02-27T16:05:54.802Z,12.23
2017-02-27T16:07:07.900Z,12.15
2017-02-27T16:08:20.995Z,12.18
2017-02-27T16:09:34.086Z,12.2
2017-02-27T16:10:47.174Z,12.14
2017-02-27T16:11:59.456Z,12.08
2017-02-27T16:13:12.532Z,12.07
2017-02-27T16:14:25.619Z,12.02
2017-02-27T16:15:38.716Z,11.97